Station Historical Data
Daily Summary for April 16, 2017 Units:  English    Metric   Both
« Previous Day
Next Day »
Daily Weekly Monthly Yearly Custom
  High: Low: Average:
Temperature: 71.8 °F 47.4 °F 62.8 °F
Dew Point: 55.7 °F 43.2 °F 50.5 °F
Humidity: 87% 48% 65%
Wind Speed: 24.0mph 0.0mph 8.2mph
Wind Gust: 38.0mph - -
Wind- - WSW
Pressure: 29.92 in 29.76 in -
Precipitation: 0.00 in    
Historical Graphs
 
 
Tabular Data for April 16, 2017
Time Temperature Dew Point Pressure Wind Wind Speed Wind Gust Humidity Rainfall Rate (Hourly)
00:04 66.7 °F 53.7 °F 29.90 in WSW 4.0 mph 7.0 mph 63% 0.00 in
00:09 66.7 °F 53.7 °F 29.90 in WSW 2.0 mph 7.0 mph 63% 0.00 in
00:14 66.6 °F 53.6 °F 29.90 in WSW 5.0 mph 9.0 mph 63% 0.00 in
00:19 66.2 °F 53.2 °F 29.90 in WSW 1.0 mph 8.0 mph 63% 0.00 in
00:24 65.8 °F 52.4 °F 29.89 in SW 4.0 mph 5.0 mph 62% 0.00 in
00:29 65.4 °F 52.0 °F 29.90 in WSW 4.0 mph 4.0 mph 62% 0.00 in
00:34 65.0 °F 52.1 °F 29.89 in WSW 3.0 mph 5.0 mph 63% 0.00 in
00:39 64.3 °F 51.4 °F 29.89 in WSW 2.0 mph 5.0 mph 63% 0.00 in
00:44 63.9 °F 51.5 °F 29.89 in SW 2.0 mph 6.0 mph 64% 0.00 in
00:49 63.4 °F 51.4 °F 29.89 in SW 1.0 mph 4.0 mph 65% 0.00 in
00:54 62.9 °F 51.0 °F 29.89 in SW 5.0 mph 6.0 mph 65% 0.00 in
00:59 62.4 °F 50.9 °F 29.89 in WSW 3.0 mph 6.0 mph 66% 0.00 in
01:04 62.1 °F 51.0 °F 29.89 in WSW 3.0 mph 6.0 mph 67% 0.00 in
01:09 61.7 °F 50.6 °F 29.89 in WSW 2.0 mph 5.0 mph 67% 0.00 in
01:14 61.4 °F 50.7 °F 29.89 in WSW 2.0 mph 5.0 mph 68% 0.00 in
01:19 61.0 °F 50.4 °F 29.89 in WSW 2.0 mph 5.0 mph 68% 0.00 in
01:24 60.8 °F 50.6 °F 29.89 in SW 2.0 mph 5.0 mph 69% 0.00 in
01:34 60.5 °F 50.7 °F 29.89 in SW 3.0 mph 7.0 mph 70% 0.00 in
01:39 60.6 °F 51.1 °F 29.88 in WSW 3.0 mph 6.0 mph 71% 0.00 in
01:44 60.9 °F 51.4 °F 29.88 in SW 7.0 mph 8.0 mph 71% 0.00 in
01:49 61.5 °F 52.0 °F 29.88 in SW 6.0 mph 14.0 mph 71% 0.00 in
01:54 62.3 °F 52.0 °F 29.88 in WSW 13.0 mph 13.0 mph 69% 0.00 in
01:59 63.0 °F 52.3 °F 29.88 in WSW 3.0 mph 13.0 mph 68% 0.00 in
02:04 63.3 °F 52.2 °F 29.88 in WSW 5.0 mph 13.0 mph 67% 0.00 in
02:09 63.4 °F 51.4 °F 29.88 in WSW 5.0 mph 8.0 mph 65% 0.00 in
02:14 63.1 °F 51.1 °F 29.87 in WSW 5.0 mph 10.0 mph 65% 0.00 in
02:19 62.9 °F 51.0 °F 29.87 in WSW 6.0 mph 10.0 mph 65% 0.00 in
02:24 62.6 °F 51.1 °F 29.87 in SW 5.0 mph 13.0 mph 66% 0.00 in
02:29 62.3 °F 50.8 °F 29.87 in WSW 7.0 mph 8.0 mph 66% 0.00 in
02:34 62.1 °F 50.6 °F 29.87 in WSW 5.0 mph 11.0 mph 66% 0.00 in
02:39 61.8 °F 50.7 °F 29.87 in SW 6.0 mph 11.0 mph 67% 0.00 in
02:44 61.6 °F 50.5 °F 29.88 in WSW 5.0 mph 11.0 mph 67% 0.00 in
02:49 61.6 °F 50.5 °F 29.87 in SSW 12.0 mph 13.0 mph 67% 0.00 in
02:59 61.5 °F 50.4 °F 29.87 in South 6.0 mph 14.0 mph 67% 0.00 in
03:04 61.5 °F 50.4 °F 29.86 in WSW 9.0 mph 14.0 mph 67% 0.00 in
03:09 61.5 °F 50.4 °F 29.86 in SW 8.0 mph 15.0 mph 67% 0.00 in
03:14 61.7 °F 50.2 °F 29.86 in WSW 8.0 mph 15.0 mph 66% 0.00 in
03:19 61.6 °F 50.1 °F 29.86 in SW 7.0 mph 11.0 mph 66% 0.00 in
03:24 61.8 °F 50.3 °F 29.86 in WSW 7.0 mph 14.0 mph 66% 0.00 in
03:29 61.9 °F 50.4 °F 29.87 in WSW 9.0 mph 14.0 mph 66% 0.00 in
03:34 62.2 °F 50.7 °F 29.86 in SW 7.0 mph 16.0 mph 66% 0.00 in
03:39 62.5 °F 50.6 °F 29.86 in SW 8.0 mph 16.0 mph 65% 0.00 in
03:44 62.9 °F 50.5 °F 29.86 in WSW 9.0 mph 16.0 mph 64% 0.00 in
03:49 62.9 °F 50.1 °F 29.86 in WSW 9.0 mph 21.0 mph 63% 0.00 in
03:54 62.8 °F 50.0 °F 29.86 in WSW 8.0 mph 21.0 mph 63% 0.00 in
03:59 62.9 °F 50.1 °F 29.86 in SW 9.0 mph 18.0 mph 63% 0.00 in
04:04 62.9 °F 50.1 °F 29.86 in WSW 8.0 mph 14.0 mph 63% 0.00 in
04:09 62.8 °F 50.0 °F 29.86 in West 14.0 mph 16.0 mph 63% 0.00 in
04:14 62.7 °F 49.9 °F 29.86 in SSW 7.0 mph 16.0 mph 63% 0.00 in
04:19 62.6 °F 49.8 °F 29.86 in SW 8.0 mph 15.0 mph 63% 0.00 in
04:24 62.7 °F 49.9 °F 29.86 in SSW 7.0 mph 14.0 mph 63% 0.00 in
04:29 62.8 °F 49.6 °F 29.86 in WSW 9.0 mph 11.0 mph 62% 0.00 in
04:34 62.8 °F 49.6 °F 29.85 in West 6.0 mph 14.0 mph 62% 0.00 in
04:39 62.7 °F 49.5 °F 29.85 in WSW 7.0 mph 14.0 mph 62% 0.00 in
04:44 62.4 °F 49.2 °F 29.85 in WSW 7.0 mph 14.0 mph 62% 0.00 in
04:49 62.1 °F 48.9 °F 29.85 in WSW 7.0 mph 14.0 mph 62% 0.00 in
04:54 61.8 °F 48.6 °F 29.85 in SW 7.0 mph 14.0 mph 62% 0.00 in
04:59 61.6 °F 48.9 °F 29.85 in SW 7.0 mph 13.0 mph 63% 0.00 in
05:04 61.5 °F 48.8 °F 29.85 in WSW 7.0 mph 16.0 mph 63% 0.00 in
05:09 61.8 °F 49.1 °F 29.85 in WSW 7.0 mph 16.0 mph 63% 0.00 in
05:14 62.4 °F 49.6 °F 29.84 in West 12.0 mph 15.0 mph 63% 0.00 in
05:19 62.9 °F 49.7 °F 29.84 in SW 6.0 mph 12.0 mph 62% 0.00 in
05:24 63.6 °F 49.9 °F 29.84 in SW 6.0 mph 19.0 mph 61% 0.00 in
05:29 64.0 °F 49.8 °F 29.85 in WSW 2.0 mph 18.0 mph 60% 0.00 in
05:34 64.1 °F 49.5 °F 29.85 in WNW 9.0 mph 15.0 mph 59% 0.00 in
05:39 63.6 °F 49.0 °F 29.85 in WSW 7.0 mph 15.0 mph 59% 0.00 in
05:44 63.1 °F 49.0 °F 29.85 in WSW 7.0 mph 13.0 mph 60% 0.00 in
05:49 62.8 °F 48.7 °F 29.85 in WSW 7.0 mph 13.0 mph 60% 0.00 in
05:54 62.5 °F 48.9 °F 29.84 in WSW 6.0 mph 11.0 mph 61% 0.00 in
05:59 62.5 °F 48.9 °F 29.84 in WSW 6.0 mph 12.0 mph 61% 0.00 in
06:04 62.7 °F 49.1 °F 29.85 in SW 5.0 mph 12.0 mph 61% 0.00 in
06:09 62.9 °F 49.2 °F 29.84 in SW 6.0 mph 14.0 mph 61% 0.00 in
06:14 63.4 °F 49.7 °F 29.84 in WSW 4.0 mph 13.0 mph 61% 0.00 in
06:19 63.7 °F 49.5 °F 29.84 in West 5.0 mph 11.0 mph 60% 0.00 in
06:24 63.9 °F 49.7 °F 29.84 in SW 7.0 mph 12.0 mph 60% 0.00 in
06:29 64.1 °F 49.5 °F 29.84 in SW 10.0 mph 11.0 mph 59% 0.00 in
06:34 64.4 °F 49.3 °F 29.84 in SW 6.0 mph 13.0 mph 58% 0.00 in
06:39 64.6 °F 49.5 °F 29.84 in SW 6.0 mph 13.0 mph 58% 0.00 in
06:44 64.8 °F 49.2 °F 29.84 in SW 6.0 mph 11.0 mph 57% 0.00 in
06:49 65.0 °F 49.4 °F 29.84 in SW 6.0 mph 13.0 mph 57% 0.00 in
06:59 65.2 °F 49.1 °F 29.84 in SSW 7.0 mph 11.0 mph 56% 0.00 in
07:04 65.2 °F 49.1 °F 29.84 in WSW 9.0 mph 13.0 mph 56% 0.00 in
07:09 65.3 °F 49.2 °F 29.84 in SW 7.0 mph 14.0 mph 56% 0.00 in
07:14 65.4 °F 49.3 °F 29.84 in SW 6.0 mph 14.0 mph 56% 0.00 in
07:19 65.7 °F 49.1 °F 29.84 in SSW 7.0 mph 12.0 mph 55% 0.00 in
07:24 66.2 °F 49.6 °F 29.84 in WSW 9.0 mph 15.0 mph 55% 0.00 in
07:29 66.7 °F 49.5 °F 29.84 in SW 10.0 mph 10.0 mph 54% 0.00 in
07:34 67.1 °F 49.4 °F 29.83 in SSE 11.0 mph 14.0 mph 53% 0.00 in
07:39 67.6 °F 49.9 °F 29.83 in SW 7.0 mph 15.0 mph 53% 0.00 in
07:44 67.9 °F 50.1 °F 29.83 in SW 6.0 mph 15.0 mph 53% 0.00 in
07:49 68.1 °F 49.8 °F 29.83 in SW 6.0 mph 14.0 mph 52% 0.00 in
07:54 68.3 °F 50.0 °F 29.83 in SW 14.0 mph 14.0 mph 52% 0.00 in
07:59 68.8 °F 49.9 °F 29.82 in SSW 5.0 mph 15.0 mph 51% 0.00 in
08:04 69.0 °F 50.1 °F 29.82 in SW 7.0 mph 14.0 mph 51% 0.00 in
08:09 69.3 °F 49.9 °F 29.82 in SW 3.0 mph 15.0 mph 50% 0.00 in
08:14 69.4 °F 50.5 °F 29.82 in SSW 7.0 mph 15.0 mph 51% 0.00 in
08:19 70.0 °F 51.0 °F 29.81 in SW 6.0 mph 14.0 mph 51% 0.00 in
08:24 70.4 °F 50.3 °F 29.81 in WSW 4.0 mph 15.0 mph 49% 0.00 in
08:29 70.5 °F 50.4 °F 29.81 in SW 8.0 mph 12.0 mph 49% 0.00 in
08:34 71.0 °F 50.9 °F 29.81 in SSW 6.0 mph 17.0 mph 49% 0.00 in
08:39 71.5 °F 50.8 °F 29.81 in WSW 11.0 mph 17.0 mph 48% 0.00 in
08:44 71.7 °F 51.0 °F 29.80 in SW 8.0 mph 19.0 mph 48% 0.00 in
08:49 71.3 °F 51.1 °F 29.80 in SW 9.0 mph 19.0 mph 49% 0.00 in
08:54 71.2 °F 51.6 °F 29.80 in SW 7.0 mph 17.0 mph 50% 0.00 in
08:59 71.1 °F 51.5 °F 29.80 in SW 14.0 mph 19.0 mph 50% 0.00 in
09:04 71.3 °F 51.1 °F 29.80 in SSW 15.0 mph 25.0 mph 49% 0.00 in
09:09 71.4 °F 51.2 °F 29.80 in SW 10.0 mph 25.0 mph 49% 0.00 in
09:14 71.8 °F 52.2 °F 29.79 in SW 9.0 mph 22.0 mph 50% 0.00 in
09:24 71.4 °F 51.8 °F 29.79 in SW 10.0 mph 19.0 mph 50% 0.00 in
09:29 70.9 °F 51.9 °F 29.79 in SSW 11.0 mph 21.0 mph 51% 0.00 in
09:34 70.6 °F 51.6 °F 29.79 in SW 6.0 mph 20.0 mph 51% 0.00 in
09:39 70.6 °F 52.1 °F 29.79 in SW 4.0 mph 17.0 mph 52% 0.00 in
09:44 70.3 °F 51.8 °F 29.79 in SW 9.0 mph 17.0 mph 52% 0.00 in
09:49 70.0 °F 51.6 °F 29.79 in SW 7.0 mph 19.0 mph 52% 0.00 in
09:54 69.8 °F 51.9 °F 29.79 in West 5.0 mph 20.0 mph 53% 0.00 in
09:59 69.7 °F 51.8 °F 29.79 in South 9.0 mph 21.0 mph 53% 0.00 in
10:04 69.8 °F 52.4 °F 29.79 in SSW 12.0 mph 19.0 mph 54% 0.00 in
10:09 69.8 °F 52.4 °F 29.79 in SW 10.0 mph 19.0 mph 54% 0.00 in
10:14 69.8 °F 51.9 °F 29.78 in SW 11.0 mph 21.0 mph 53% 0.00 in
10:19 69.8 °F 52.4 °F 29.78 in SW 11.0 mph 21.0 mph 54% 0.00 in
10:24 69.7 °F 52.3 °F 29.78 in SW 11.0 mph 22.0 mph 54% 0.00 in
10:29 70.0 °F 52.1 °F 29.78 in SW 12.0 mph 26.0 mph 53% 0.00 in
10:34 70.3 °F 52.9 °F 29.78 in SW 12.0 mph 27.0 mph 54% 0.00 in
10:39 70.3 °F 52.9 °F 29.78 in SW 14.0 mph 24.0 mph 54% 0.00 in
10:49 69.8 °F 52.9 °F 29.78 in WSW 8.0 mph 33.0 mph 55% 0.00 in
10:54 69.4 °F 53.0 °F 29.78 in SW 17.0 mph 29.0 mph 56% 0.00 in
10:59 69.5 °F 53.1 °F 29.78 in West 14.0 mph 26.0 mph 56% 0.00 in
11:09 70.9 °F 53.9 °F 29.77 in WNW 18.0 mph 24.0 mph 55% 0.00 in
11:14 70.7 °F 54.2 °F 29.77 in SW 14.0 mph 24.0 mph 56% 0.00 in
11:19 71.0 °F 54.0 °F 29.78 in SW 13.0 mph 29.0 mph 55% 0.00 in
11:24 71.4 °F 54.9 °F 29.77 in WSW 12.0 mph 29.0 mph 56% 0.00 in
11:29 71.3 °F 54.3 °F 29.77 in WSW 12.0 mph 23.0 mph 55% 0.00 in
11:34 70.6 °F 54.1 °F 29.77 in WSW 13.0 mph 25.0 mph 56% 0.00 in
11:39 70.3 °F 54.3 °F 29.76 in SSW 17.0 mph 24.0 mph 57% 0.00 in
11:44 70.7 °F 54.2 °F 29.77 in WSW 13.0 mph 24.0 mph 56% 0.00 in
11:49 70.3 °F 54.3 °F 29.76 in SSW 17.0 mph 25.0 mph 57% 0.00 in
11:54 70.3 °F 54.8 °F 29.77 in West 11.0 mph 22.0 mph 58% 0.00 in
11:59 70.6 °F 54.6 °F 29.76 in SW 16.0 mph 25.0 mph 57% 0.00 in
12:04 71.0 °F 55.0 °F 29.76 in West 19.0 mph 23.0 mph 57% 0.00 in
12:14 70.7 °F 55.2 °F 29.76 in West 11.0 mph 26.0 mph 58% 0.00 in
12:19 71.5 °F 55.0 °F 29.76 in WSW 13.0 mph 26.0 mph 56% 0.00 in
12:24 71.6 °F 55.1 °F 29.76 in WSW 15.0 mph 35.0 mph 56% 0.00 in
12:29 71.6 °F 55.6 °F 29.77 in WSW 15.0 mph 35.0 mph 57% 0.00 in
12:34 70.5 °F 54.5 °F 29.76 in WSW 16.0 mph 31.0 mph 57% 0.00 in
12:44 68.2 °F 52.9 °F 29.77 in SW 15.0 mph 29.0 mph 58% 0.00 in
12:49 66.7 °F 52.8 °F 29.77 in WSW 16.0 mph 33.0 mph 61% 0.00 in
12:54 67.3 °F 53.4 °F 29.77 in WSW 16.0 mph 33.0 mph 61% 0.00 in
12:59 68.3 °F 53.9 °F 29.77 in West 14.0 mph 29.0 mph 60% 0.00 in
13:04 68.8 °F 54.8 °F 29.76 in WSW 12.0 mph 27.0 mph 61% 0.00 in
13:09 69.6 °F 55.1 °F 29.76 in West 18.0 mph 32.0 mph 60% 0.00 in
13:14 69.8 °F 54.8 °F 29.76 in SW 24.0 mph 33.0 mph 59% 0.00 in
13:19 69.3 °F 54.8 °F 29.76 in WSW 16.0 mph 38.0 mph 60% 0.00 in
13:24 68.7 °F 54.3 °F 29.76 in WSW 17.0 mph 38.0 mph 60% 0.00 in
13:29 68.2 °F 54.7 °F 29.77 in WSW 17.0 mph 34.0 mph 62% 0.00 in
13:34 67.7 °F 54.6 °F 29.78 in West 15.0 mph 34.0 mph 63% 0.00 in
13:39 67.0 °F 54.4 °F 29.77 in WNW 17.0 mph 27.0 mph 64% 0.00 in
13:44 66.3 °F 53.8 °F 29.77 in West 16.0 mph 26.0 mph 64% 0.00 in
13:49 65.9 °F 53.8 °F 29.77 in West 12.0 mph 26.0 mph 65% 0.00 in
13:54 65.5 °F 54.7 °F 29.77 in West 13.0 mph 27.0 mph 68% 0.00 in
13:59 65.1 °F 54.3 °F 29.77 in West 13.0 mph 29.0 mph 68% 0.00 in
14:04 65.3 °F 54.1 °F 29.77 in WSW 9.0 mph 31.0 mph 67% 0.00 in
14:09 65.5 °F 53.8 °F 29.77 in SSW 14.0 mph 29.0 mph 66% 0.00 in
14:14 65.5 °F 53.4 °F 29.77 in West 13.0 mph 25.0 mph 65% 0.00 in
14:19 65.9 °F 53.8 °F 29.77 in West 13.0 mph 25.0 mph 65% 0.00 in
14:24 66.5 °F 53.9 °F 29.76 in West 12.0 mph 23.0 mph 64% 0.00 in
14:29 67.0 °F 54.8 °F 29.77 in West 12.0 mph 31.0 mph 65% 0.00 in
14:34 68.0 °F 54.5 °F 29.77 in WSW 13.0 mph 31.0 mph 62% 0.00 in
14:39 68.8 °F 55.7 °F 29.77 in SW 16.0 mph 26.0 mph 63% 0.00 in
14:44 69.3 °F 54.8 °F 29.77 in SW 16.0 mph 22.0 mph 60% 0.00 in
14:49 69.4 °F 55.4 °F 29.77 in WNW 13.0 mph 27.0 mph 61% 0.00 in
14:54 69.4 °F 55.4 °F 29.77 in WSW 15.0 mph 27.0 mph 61% 0.00 in
14:59 69.7 °F 54.7 °F 29.77 in WSW 14.0 mph 27.0 mph 59% 0.00 in
15:04 70.0 °F 55.5 °F 29.77 in WSW 12.0 mph 23.0 mph 60% 0.00 in
15:09 69.4 °F 54.9 °F 29.77 in WSW 11.0 mph 27.0 mph 60% 0.00 in
15:14 68.9 °F 54.9 °F 29.77 in SW 8.0 mph 19.0 mph 61% 0.00 in
15:19 69.0 °F 55.0 °F 29.77 in West 5.0 mph 24.0 mph 61% 0.00 in
15:24 69.5 °F 55.5 °F 29.77 in WSW 12.0 mph 24.0 mph 61% 0.00 in
15:29 69.8 °F 55.3 °F 29.77 in WSW 11.0 mph 22.0 mph 60% 0.00 in
15:34 70.1 °F 55.1 °F 29.77 in WSW 11.0 mph 22.0 mph 59% 0.00 in
15:39 69.5 °F 54.5 °F 29.76 in WSW 11.0 mph 22.0 mph 59% 0.00 in
15:44 69.3 °F 55.3 °F 29.76 in WSW 12.0 mph 22.0 mph 61% 0.00 in
15:49 69.9 °F 55.4 °F 29.76 in West 8.0 mph 18.0 mph 60% 0.00 in
15:54 70.0 °F 55.5 °F 29.77 in WSW 11.0 mph 22.0 mph 60% 0.00 in
15:59 69.5 °F 54.5 °F 29.76 in WSW 11.0 mph 22.0 mph 59% 0.00 in
16:04 69.0 °F 54.5 °F 29.77 in WSW 14.0 mph 18.0 mph 60% 0.00 in
16:09 69.3 °F 54.8 °F 29.77 in West 6.0 mph 22.0 mph 60% 0.00 in
16:14 69.2 °F 55.2 °F 29.77 in SW 7.0 mph 22.0 mph 61% 0.00 in
16:19 69.5 °F 55.5 °F 29.77 in WSW 15.0 mph 17.0 mph 61% 0.00 in
16:24 69.1 °F 55.1 °F 29.77 in WSW 11.0 mph 19.0 mph 61% 0.00 in
16:29 69.1 °F 54.6 °F 29.77 in WSW 10.0 mph 19.0 mph 60% 0.00 in
16:34 68.5 °F 55.0 °F 29.77 in WSW 13.0 mph 20.0 mph 62% 0.00 in
16:39 68.6 °F 54.6 °F 29.77 in West 12.0 mph 17.0 mph 61% 0.00 in
16:44 68.4 °F 54.9 °F 29.77 in WNW 9.0 mph 17.0 mph 62% 0.00 in
16:49 67.8 °F 54.3 °F 29.78 in WSW 10.0 mph 20.0 mph 62% 0.00 in
16:54 66.6 °F 53.6 °F 29.77 in WSW 12.0 mph 21.0 mph 63% 0.00 in
16:59 65.4 °F 52.9 °F 29.78 in WSW 12.0 mph 21.0 mph 64% 0.00 in
17:04 65.5 °F 53.4 °F 29.78 in WSW 12.0 mph 21.0 mph 65% 0.00 in
17:09 65.1 °F 53.0 °F 29.78 in WSW 10.0 mph 20.0 mph 65% 0.00 in
17:14 64.7 °F 52.7 °F 29.78 in WSW 7.0 mph 17.0 mph 65% 0.00 in
17:19 63.4 °F 52.2 °F 29.79 in WSW 10.0 mph 23.0 mph 67% 0.00 in
17:24 62.2 °F 51.5 °F 29.78 in WSW 10.0 mph 23.0 mph 68% 0.00 in
17:34 61.5 °F 51.2 °F 29.79 in SW 13.0 mph 22.0 mph 69% 0.00 in
17:39 61.6 °F 51.7 °F 29.79 in West 3.0 mph 17.0 mph 70% 0.00 in
17:44 61.9 °F 51.6 °F 29.79 in WSW 9.0 mph 13.0 mph 69% 0.00 in
17:49 61.8 °F 51.1 °F 29.79 in WNW 6.0 mph 14.0 mph 68% 0.00 in
17:54 60.6 °F 50.8 °F 29.80 in WSW 8.0 mph 17.0 mph 70% 0.00 in
17:59 60.1 °F 50.7 °F 29.79 in WSW 8.0 mph 17.0 mph 71% 0.00 in
18:04 59.5 °F 50.1 °F 29.79 in WSW 8.0 mph 16.0 mph 71% 0.00 in
18:09 59.3 °F 50.3 °F 29.79 in WSW 9.0 mph 16.0 mph 72% 0.00 in
18:14 59.0 °F 50.0 °F 29.79 in WSW 8.0 mph 17.0 mph 72% 0.00 in
18:24 59.9 °F 50.5 °F 29.79 in SW 19.0 mph 19.0 mph 71% 0.00 in
18:29 59.2 °F 49.8 °F 29.80 in SSW 7.0 mph 19.0 mph 71% 0.00 in
18:34 58.3 °F 49.3 °F 29.80 in WNW 6.0 mph 16.0 mph 72% 0.00 in
18:39 58.2 °F 49.6 °F 29.80 in WSW 10.0 mph 12.0 mph 73% 0.00 in
18:44 58.3 °F 49.7 °F 29.80 in SW 12.0 mph 14.0 mph 73% 0.00 in
18:49 58.1 °F 49.5 °F 29.80 in WSW 7.0 mph 14.0 mph 73% 0.00 in
18:54 57.8 °F 49.2 °F 29.80 in WSW 7.0 mph 13.0 mph 73% 0.00 in
18:59 57.8 °F 49.2 °F 29.80 in WSW 7.0 mph 14.0 mph 73% 0.00 in
19:04 57.3 °F 49.1 °F 29.80 in WSW 7.0 mph 14.0 mph 74% 0.00 in
19:09 56.9 °F 48.7 °F 29.80 in WSW 6.0 mph 11.0 mph 74% 0.00 in
19:14 56.4 °F 48.6 °F 29.80 in WSW 6.0 mph 9.0 mph 75% 0.00 in
19:19 56.0 °F 48.2 °F 29.81 in SW 5.0 mph 9.0 mph 75% 0.00 in
19:24 55.7 °F 47.9 °F 29.81 in West 2.0 mph 9.0 mph 75% 0.00 in
19:29 55.7 °F 48.2 °F 29.82 in West 6.0 mph 7.0 mph 76% 0.00 in
19:34 55.9 °F 48.4 °F 29.81 in SW 7.0 mph 9.0 mph 76% 0.00 in
19:39 55.7 °F 47.9 °F 29.80 in SSW 3.0 mph 8.0 mph 75% 0.00 in
19:44 55.3 °F 47.9 °F 29.81 in SW 4.0 mph 8.0 mph 76% 0.00 in
19:49 55.0 °F 47.6 °F 29.81 in SW 3.0 mph 7.0 mph 76% 0.00 in
19:54 54.4 °F 47.0 °F 29.81 in SSW 3.0 mph 7.0 mph 76% 0.00 in
19:59 53.6 °F 46.6 °F 29.81 in SW 4.0 mph 7.0 mph 77% 0.00 in
20:04 52.8 °F 46.1 °F 29.82 in SSW 3.0 mph 11.0 mph 78% 0.00 in
20:09 52.4 °F 45.7 °F 29.82 in SSW 4.0 mph 6.0 mph 78% 0.00 in
20:14 52.1 °F 45.8 °F 29.82 in SW 4.0 mph 8.0 mph 79% 0.00 in
20:19 52.1 °F 45.8 °F 29.83 in SW 4.0 mph 9.0 mph 79% 0.00 in
20:24 52.0 °F 45.7 °F 29.83 in SW 4.0 mph 9.0 mph 79% 0.00 in
20:29 51.8 °F 45.5 °F 29.83 in SW 4.0 mph 9.0 mph 79% 0.00 in
20:39 51.1 °F 44.8 °F 29.83 in SSW 4.0 mph 7.0 mph 79% 0.00 in
20:44 50.8 °F 44.9 °F 29.84 in SSW 4.0 mph 8.0 mph 80% 0.00 in
20:49 50.5 °F 44.6 °F 29.84 in SSW 4.0 mph 9.0 mph 80% 0.00 in
20:54 50.1 °F 44.2 °F 29.84 in West 6.0 mph 10.0 mph 80% 0.00 in
20:59 49.7 °F 43.8 °F 29.85 in SSW 6.0 mph 9.0 mph 80% 0.00 in
21:04 49.4 °F 43.8 °F 29.85 in SW 5.0 mph 10.0 mph 81% 0.00 in
21:14 49.1 °F 43.5 °F 29.85 in SSW 5.0 mph 10.0 mph 81% 0.00 in
21:19 48.9 °F 43.6 °F 29.85 in SW 3.0 mph 7.0 mph 82% 0.00 in
21:24 48.6 °F 43.4 °F 29.85 in SSW 4.0 mph 7.0 mph 82% 0.00 in
21:29 48.5 °F 43.3 °F 29.86 in SW 4.0 mph 10.0 mph 82% 0.00 in
21:34 48.4 °F 43.2 °F 29.86 in SW 2.0 mph 9.0 mph 82% 0.00 in
21:39 48.3 °F 43.4 °F 29.86 in SW 4.0 mph 6.0 mph 83% 0.00 in
21:44 48.2 °F 43.3 °F 29.86 in South 2.0 mph 9.0 mph 83% 0.00 in
21:49 48.1 °F 43.2 °F 29.86 in SW 5.0 mph 13.0 mph 83% 0.00 in
21:59 48.0 °F 43.4 °F 29.86 in WSW 8.0 mph 10.0 mph 84% 0.00 in
22:04 48.0 °F 43.4 °F 29.87 in West 4.0 mph 12.0 mph 84% 0.00 in
22:09 47.9 °F 43.3 °F 29.88 in SW 8.0 mph 11.0 mph 84% 0.00 in
22:14 47.8 °F 43.5 °F 29.87 in SW 6.0 mph 12.0 mph 85% 0.00 in
22:19 47.7 °F 43.4 °F 29.87 in SW 5.0 mph 12.0 mph 85% 0.00 in
22:24 47.6 °F 43.3 °F 29.87 in SW 5.0 mph 13.0 mph 85% 0.00 in
22:29 47.6 °F 43.3 °F 29.87 in SW 5.0 mph 13.0 mph 85% 0.00 in
22:34 47.5 °F 43.5 °F 29.87 in SW 4.0 mph 10.0 mph 86% 0.00 in
22:39 47.5 °F 43.5 °F 29.87 in SW 7.0 mph 7.0 mph 86% 0.00 in
22:44 47.5 °F 43.5 °F 29.88 in SW 3.0 mph 9.0 mph 86% 0.00 in
22:49 47.4 °F 43.4 °F 29.88 in SW 4.0 mph 13.0 mph 86% 0.00 in
22:54 47.4 °F 43.4 °F 29.88 in SW 2.0 mph 10.0 mph 86% 0.00 in
22:59 47.5 °F 43.5 °F 29.88 in SW 2.0 mph 7.0 mph 86% 0.00 in
23:09 47.8 °F 44.1 °F 29.88 in WSW 1.0 mph 7.0 mph 87% 0.00 in
23:14 48.0 °F 44.3 °F 29.91 in WSW 4.0 mph 7.0 mph 87% 0.00 in
23:19 48.1 °F 44.4 °F 29.91 in WNW 3.0 mph 7.0 mph 87% 0.00 in
23:24 48.3 °F 44.3 °F 29.91 in West 2.0 mph 4.0 mph 86% 0.00 in
23:29 48.4 °F 44.4 °F 29.90 in West 1.0 mph 4.0 mph 86% 0.00 in
23:34 48.4 °F 44.4 °F 29.90 in Calm   2.0 mph 86% 0.00 in
23:44 48.3 °F 44.3 °F 29.91 in WSW 2.0 mph 2.0 mph 86% 0.00 in
23:49 48.3 °F 44.3 °F 29.91 in Calm   4.0 mph 86% 0.00 in
23:54 48.4 °F 44.4 °F 29.91 in Calm   2.0 mph 86% 0.00 in
23:59 48.4 °F 44.4 °F 29.92 in South 2.0 mph 5.0 mph 86% 0.00 in
Buffalo, New York, USA
Compliments of Weather Underground - 2.25 mb